createdAt,value
2018-05-15T00:02:01.395Z,11.80
2018-05-15T00:04:28.846Z,11.80
2018-05-15T00:06:56.313Z,11.80
2018-05-15T00:09:23.755Z,11.80
2018-05-15T00:11:51.206Z,11.70
2018-05-15T00:14:18.663Z,11.70
2018-05-15T00:16:46.115Z,11.70
2018-05-15T00:19:13.571Z,11.80
2018-05-15T00:21:41.036Z,11.70
2018-05-15T00:24:08.495Z,11.70
2018-05-15T00:26:35.955Z,11.70
2018-05-15T00:29:03.407Z,11.70
2018-05-15T00:31:30.868Z,11.70
2018-05-15T00:33:58.327Z,11.70
2018-05-15T00:36:25.789Z,11.70
2018-05-15T00:38:53.249Z,11.70
2018-05-15T00:41:20.703Z,11.80
2018-05-15T00:43:48.154Z,11.80
2018-05-15T00:46:15.615Z,11.80
2018-05-15T00:48:43.066Z,11.80
2018-05-15T00:51:10.527Z,11.80
2018-05-15T00:53:37.988Z,11.80
2018-05-15T00:56:05.447Z,11.70
2018-05-15T00:58:33.725Z,11.70
2018-05-15T01:01:01.180Z,11.70
2018-05-15T01:03:28.640Z,11.70
2018-05-15T01:05:56.104Z,11.80
2018-05-15T01:08:23.558Z,11.60
2018-05-15T01:10:51.019Z,11.60
2018-05-15T01:13:18.470Z,11.50
2018-05-15T01:15:45.923Z,11.50
2018-05-15T01:18:13.376Z,11.60
2018-05-15T01:20:40.832Z,11.60
2018-05-15T01:23:08.298Z,11.60
2018-05-15T01:25:35.752Z,11.70
2018-05-15T01:28:03.208Z,11.70
2018-05-15T01:30:30.660Z,11.70
2018-05-15T01:32:58.124Z,11.60
2018-05-15T01:35:25.582Z,11.70
2018-05-15T01:37:53.043Z,11.60
2018-05-15T01:40:20.516Z,11.50
2018-05-15T01:42:48.738Z,11.30
2018-05-15T01:45:16.193Z,11.30
2018-05-15T01:47:43.660Z,11.30
2018-05-15T01:50:11.098Z,11.20
2018-05-15T01:52:38.560Z,11.20
2018-05-15T01:55:06.012Z,11.10
2018-05-15T01:57:33.472Z,11.10
2018-05-15T02:00:00.914Z,11.00
2018-05-15T02:02:28.391Z,11.10
2018-05-15T02:04:55.836Z,11.20
2018-05-15T02:07:23.300Z,11.20
2018-05-15T02:09:50.751Z,11.20
2018-05-15T02:12:18.213Z,11.20
2018-05-15T02:14:45.668Z,11.30
2018-05-15T02:17:13.124Z,11.40
2018-05-15T02:19:40.579Z,11.30
2018-05-15T02:22:08.036Z,11.20
2018-05-15T02:24:35.495Z,11.20
2018-05-15T02:27:03.006Z,11.10
2018-05-15T02:29:30.407Z,11.00
2018-05-15T02:31:57.863Z,11.00
2018-05-15T02:34:25.322Z,10.90
2018-05-15T02:36:52.788Z,10.80
2018-05-15T02:39:20.244Z,10.80
2018-05-15T02:41:47.701Z,10.70
2018-05-15T02:44:15.152Z,10.70
2018-05-15T02:46:42.608Z,10.60
2018-05-15T02:49:10.046Z,10.60
2018-05-15T02:51:37.519Z,10.60
2018-05-15T02:54:04.968Z,10.60
2018-05-15T02:56:32.424Z,10.50
2018-05-15T02:58:59.895Z,10.50
2018-05-15T03:01:27.348Z,10.50
2018-05-15T03:03:54.795Z,10.60
2018-05-15T03:06:22.262Z,10.50
2018-05-15T03:08:49.737Z,10.50
2018-05-15T03:11:17.193Z,10.50
2018-05-15T03:13:44.652Z,10.50
2018-05-15T03:16:12.103Z,10.50
2018-05-15T03:18:39.564Z,10.50
2018-05-15T03:21:07.019Z,10.50
2018-05-15T03:23:34.472Z,10.40
2018-05-15T03:26:01.920Z,10.50
2018-05-15T03:28:29.375Z,10.40
2018-05-15T03:30:56.832Z,10.30
2018-05-15T03:33:24.288Z,10.30
2018-05-15T03:35:51.747Z,10.20
2018-05-15T03:38:19.207Z,10.30
2018-05-15T03:40:46.660Z,10.20
2018-05-15T03:43:14.116Z,10.20
2018-05-15T03:45:41.571Z,10.30
2018-05-15T03:48:09.052Z,10.30
2018-05-15T03:50:36.508Z,10.40
2018-05-15T03:53:03.968Z,10.40
2018-05-15T03:55:31.424Z,10.40
2018-05-15T03:57:58.879Z,10.40
2018-05-15T04:00:38.278Z,10.40
2018-05-15T04:03:18.446Z,10.50
2018-05-15T04:05:57.730Z,10.50
2018-05-15T04:08:25.182Z,10.60
2018-05-15T04:10:52.737Z,10.70
2018-05-15T04:13:20.095Z,10.70
2018-05-15T04:15:47.551Z,10.80
2018-05-15T04:18:15.009Z,10.80
2018-05-15T04:20:42.464Z,10.90
2018-05-15T04:23:09.924Z,11.10
2018-05-15T04:25:37.376Z,11.10
2018-05-15T04:28:04.884Z,11.20
2018-05-15T04:30:32.293Z,11.30
2018-05-15T04:32:59.747Z,11.40
2018-05-15T04:35:27.208Z,11.50
2018-05-15T04:37:54.662Z,11.50
2018-05-15T04:40:22.115Z,11.60
2018-05-15T04:42:49.573Z,11.50
2018-05-15T04:45:17.037Z,11.50
2018-05-15T04:47:44.493Z,11.40
2018-05-15T04:50:11.947Z,11.50
2018-05-15T04:52:39.408Z,11.50
2018-05-15T04:55:06.873Z,11.50
2018-05-15T04:57:34.323Z,11.40
2018-05-15T05:00:01.788Z,11.50
2018-05-15T05:02:29.247Z,11.60
2018-05-15T05:04:57.496Z,11.70
2018-05-15T05:07:24.958Z,11.80
2018-05-15T05:09:52.412Z,11.90
2018-05-15T05:12:19.864Z,12.10
2018-05-15T05:14:47.336Z,12.30
2018-05-15T05:17:14.784Z,12.40
2018-05-15T05:19:42.252Z,12.50
2018-05-15T05:22:09.699Z,12.70
2018-05-15T05:24:37.175Z,12.90
2018-05-15T05:27:04.707Z,12.90
2018-05-15T05:29:32.884Z,13.00
2018-05-15T05:32:00.355Z,13.00
2018-05-15T05:34:27.817Z,13.00
2018-05-15T05:36:55.272Z,12.90
2018-05-15T05:39:22.723Z,13.00
2018-05-15T05:41:50.179Z,13.00
2018-05-15T05:44:17.640Z,13.00
2018-05-15T05:46:45.079Z,13.10
2018-05-15T05:49:12.545Z,13.40
2018-05-15T05:51:39.996Z,13.50
2018-05-15T05:54:07.456Z,13.60
2018-05-15T05:56:34.908Z,13.80
2018-05-15T05:59:02.364Z,14.00
2018-05-15T06:01:29.811Z,14.20
2018-05-15T06:03:57.305Z,14.40
2018-05-15T06:06:24.728Z,14.60
2018-05-15T06:08:52.184Z,14.80
2018-05-15T06:11:19.650Z,15.00
2018-05-15T06:13:47.110Z,15.20
2018-05-15T06:16:14.581Z,15.30
2018-05-15T06:18:42.066Z,15.30
2018-05-15T06:21:10.288Z,15.20
2018-05-15T06:23:37.757Z,15.20
2018-05-15T06:26:05.203Z,15.20
2018-05-15T06:28:32.663Z,15.30
2018-05-15T06:31:00.104Z,15.40
2018-05-15T06:33:27.558Z,15.40
2018-05-15T06:35:54.998Z,15.50
2018-05-15T06:38:22.439Z,15.40
2018-05-15T06:40:50.662Z,15.50
2018-05-15T06:43:18.127Z,15.50
2018-05-15T06:45:45.585Z,15.50
2018-05-15T06:48:13.140Z,15.60
2018-05-15T06:50:40.644Z,15.80
2018-05-15T06:53:08.992Z,15.80
2018-05-15T06:55:36.460Z,15.80
2018-05-15T06:58:03.920Z,15.80
2018-05-15T07:00:31.416Z,15.70
2018-05-15T07:02:58.897Z,15.70
2018-05-15T07:05:26.347Z,15.90
2018-05-15T07:07:53.989Z,15.90
2018-05-15T07:10:22.839Z,15.80
2018-05-15T07:12:50.349Z,15.90
2018-05-15T07:15:17.816Z,15.80
2018-05-15T07:17:46.275Z,16.00
2018-05-15T07:20:13.734Z,16.00
2018-05-15T07:22:41.184Z,16.10
2018-05-15T07:25:08.992Z,16.10
2018-05-15T07:27:37.265Z,15.90
2018-05-15T07:30:04.733Z,15.80
2018-05-15T07:32:32.185Z,15.60
2018-05-15T07:35:00.442Z,15.80
2018-05-15T07:37:27.913Z,15.80
2018-05-15T07:39:55.448Z,16.00
2018-05-15T07:42:23.001Z,16.30
2018-05-15T07:44:50.490Z,16.20
2018-05-15T07:47:18.012Z,16.20
2018-05-15T07:49:45.821Z,16.30
2018-05-15T07:52:13.293Z,16.20
2018-05-15T07:54:40.775Z,16.40
2018-05-15T07:57:08.987Z,16.50
2018-05-15T07:59:36.493Z,16.50
2018-05-15T08:02:04.073Z,16.30
2018-05-15T08:04:31.524Z,16.20
2018-05-15T08:06:58.929Z,16.20
2018-05-15T08:09:26.392Z,16.00
2018-05-15T08:11:53.870Z,16.30
2018-05-15T08:14:21.386Z,16.70
2018-05-15T08:16:48.896Z,17.30
2018-05-15T08:19:16.357Z,17.70
2018-05-15T08:21:43.810Z,17.70
2018-05-15T08:24:11.300Z,17.60
2018-05-15T08:26:38.809Z,17.50
2018-05-15T08:29:06.289Z,17.30
2018-05-15T08:31:33.744Z,17.60
2018-05-15T08:34:01.208Z,17.50
2018-05-15T08:36:29.449Z,17.80
2018-05-15T08:38:56.940Z,17.80
2018-05-15T08:41:25.182Z,18.10
2018-05-15T08:43:52.673Z,18.10
2018-05-15T08:46:20.933Z,18.40
2018-05-15T08:48:48.408Z,18.30
2018-05-15T08:51:16.639Z,18.40
2018-05-15T08:53:44.170Z,18.40
2018-05-15T08:56:11.641Z,18.80
2018-05-15T08:58:39.272Z,19.70
2018-05-15T09:01:06.784Z,20.40
2018-05-15T09:03:34.253Z,20.70
2018-05-15T09:06:01.705Z,21.70
2018-05-15T09:08:29.234Z,22.00
2018-05-15T09:10:56.724Z,22.00
2018-05-15T09:13:24.180Z,22.20
2018-05-15T09:15:51.785Z,22.60
2018-05-15T09:18:19.294Z,23.40
2018-05-15T09:20:46.796Z,23.70
2018-05-15T09:23:14.272Z,24.40
2018-05-15T09:25:41.801Z,23.70
2018-05-15T09:28:10.131Z,21.70
2018-05-15T09:30:38.537Z,21.70
2018-05-15T09:33:07.146Z,21.50
2018-05-15T09:35:34.639Z,21.10
2018-05-15T09:38:02.192Z,20.20
2018-05-15T09:40:29.687Z,19.60
2018-05-15T09:42:57.163Z,19.20
2018-05-15T09:45:24.640Z,19.40
2018-05-15T09:47:53.024Z,19.00
2018-05-15T09:50:20.653Z,19.00
2018-05-15T09:52:48.553Z,19.00
2018-05-15T09:55:16.047Z,19.10
2018-05-15T09:57:43.488Z,18.80
2018-05-15T10:00:10.985Z,18.50
2018-05-15T10:02:38.581Z,18.50
2018-05-15T10:05:06.976Z,19.60
2018-05-15T10:07:34.565Z,19.60
2018-05-15T10:10:02.169Z,20.70
2018-05-15T10:12:30.395Z,22.60
2018-05-15T10:14:57.864Z,22.60
2018-05-15T10:17:25.317Z,24.50
2018-05-15T10:19:52.855Z,26.20
2018-05-15T10:22:20.238Z,27.60
2018-05-15T10:24:47.748Z,26.60
2018-05-15T10:27:15.992Z,22.90
2018-05-15T10:29:43.637Z,22.90
2018-05-15T10:32:11.921Z,20.80
2018-05-15T10:34:39.359Z,20.80
2018-05-15T10:37:06.814Z,19.10
2018-05-15T10:39:34.320Z,16.60
2018-05-15T10:42:02.564Z,14.70
2018-05-15T10:44:30.022Z,14.60
2018-05-15T10:46:57.509Z,14.00
2018-05-15T10:49:25.736Z,13.50
2018-05-15T10:51:53.716Z,13.50
2018-05-15T10:54:21.177Z,13.20
2018-05-15T10:56:48.639Z,13.20
2018-05-15T10:59:16.100Z,13.00
2018-05-15T11:01:45.400Z,12.70
2018-05-15T11:04:12.931Z,12.50
2018-05-15T11:06:40.396Z,12.50
2018-05-15T11:09:07.855Z,12.30
2018-05-15T11:11:35.700Z,12.00
2018-05-15T11:14:03.847Z,12.10
2018-05-15T11:16:31.351Z,11.70
2018-05-15T11:19:10.661Z,11.80
2018-05-15T11:24:50.038Z,11.70
2018-05-15T11:27:17.502Z,11.70
2018-05-15T11:29:44.977Z,11.80
2018-05-15T11:32:12.449Z,12.00
2018-05-15T11:34:40.672Z,12.10
2018-05-15T11:37:08.148Z,12.00
2018-05-15T11:39:35.617Z,12.30
2018-05-15T11:42:03.081Z,12.60
2018-05-15T11:44:30.554Z,12.80
2018-05-15T11:46:58.834Z,13.00
2018-05-15T11:49:27.607Z,13.30
2018-05-15T11:51:55.787Z,13.30
2018-05-15T11:54:22.178Z,13.60
2018-05-15T11:56:49.868Z,13.70
2018-05-15T11:59:17.437Z,14.00
2018-05-15T12:01:44.993Z,14.20
2018-05-15T12:04:12.487Z,14.30
2018-05-15T12:06:40.071Z,14.70
2018-05-15T12:09:07.446Z,15.00
2018-05-15T12:11:34.906Z,15.50
2018-05-15T12:14:02.887Z,16.10
2018-05-15T12:16:30.349Z,17.00
2018-05-15T12:18:57.813Z,17.80
2018-05-15T12:21:25.273Z,18.50
2018-05-15T12:23:53.558Z,19.70
2018-05-15T12:26:21.794Z,21.00
2018-05-15T12:28:49.240Z,21.00
2018-05-15T12:31:16.719Z,21.80
2018-05-15T12:33:44.166Z,22.30
2018-05-15T12:36:11.629Z,22.90
2018-05-15T12:38:39.073Z,21.80
2018-05-15T12:41:06.688Z,21.10
2018-05-15T12:43:34.338Z,21.10
2018-05-15T12:46:02.571Z,21.10
